Terminal Aerodrome Forecast
Issued by NWS Jackson, MS

Home | Current Version | Previous Version | Text Only | Print | Product List | Glossary On
Versions: 1 2 3 4 5 6 7 8 9 10 11 12 13
315
FTUS44 KJAN 291727
TAFMEI
TAF
KMEI 291727Z 2918/3018 17009G17KT P6SM SCT040
     FM300400 19011KT P6SM OVC019
     FM300900 18011KT P6SM VCTS OVC015CB
     FM301500 20014G20KT P6SM -TSRA OVC050CB=

USA.gov is the U.S. government's official web portal to all federal, state and local government web resources and services.